createdAt,value
2019-03-23T00:04:54.812Z,12.40
2019-03-23T00:09:59.221Z,12.97
2019-03-23T00:15:03.659Z,13.30
2019-03-23T00:20:07.995Z,18.23
2019-03-23T00:25:12.390Z,13.27
2019-03-23T00:30:16.726Z,15.43
2019-03-23T00:35:21.059Z,12.70
2019-03-23T00:40:25.337Z,16.63
2019-03-23T00:45:29.807Z,13.13
2019-03-23T00:50:34.091Z,11.50
2019-03-23T00:55:38.302Z,11.60
2019-03-23T01:00:42.476Z,13.10
2019-03-23T01:05:46.770Z,14.70
2019-03-23T01:10:51.001Z,13.30
2019-03-23T01:15:55.294Z,13.77
2019-03-23T01:20:59.609Z,15.33
2019-03-23T01:26:03.873Z,15.83
2019-03-23T01:31:08.420Z,15.23
2019-03-23T01:36:12.778Z,12.57
2019-03-23T01:41:17.044Z,15.43
2019-03-23T01:46:21.704Z,12.87
2019-03-23T01:51:25.968Z,11.80
2019-03-23T01:56:30.194Z,12.37
2019-03-23T02:01:34.426Z,13.87
2019-03-23T02:06:39.087Z,14.60
2019-03-23T02:11:43.330Z,13.03
2019-03-23T02:16:47.713Z,13.20
2019-03-23T02:21:52.136Z,13.63
2019-03-23T02:26:56.348Z,13.53
2019-03-23T02:32:00.572Z,12.43
2019-03-23T02:37:04.915Z,13.93
2019-03-23T02:42:09.200Z,13.33
2019-03-23T02:47:13.744Z,14.80
2019-03-23T02:52:18.043Z,13.57
2019-03-23T02:57:22.479Z,14.97
2019-03-23T03:02:26.656Z,14.10
2019-03-23T03:07:41.112Z,15.80
2019-03-23T03:12:37.002Z,13.80
2019-03-23T03:17:41.278Z,13.80
2019-03-23T03:22:45.494Z,14.93
2019-03-23T03:27:49.790Z,13.03
2019-03-23T03:32:54.182Z,15.43
2019-03-23T03:37:58.393Z,14.90
2019-03-23T03:43:02.674Z,13.10
2019-03-23T03:48:07.026Z,15.23
2019-03-23T03:53:11.309Z,14.13
2019-03-23T03:58:15.698Z,15.10
2019-03-23T04:03:20.110Z,17.93
2019-03-23T04:08:24.444Z,15.30
2019-03-23T04:13:28.760Z,15.40
2019-03-23T04:18:33.089Z,13.27
2019-03-23T04:23:37.363Z,15.13
2019-03-23T04:28:41.974Z,13.97
2019-03-23T04:33:46.344Z,14.17
2019-03-23T04:38:50.669Z,13.70
2019-03-23T04:43:54.908Z,15.93
2019-03-23T04:48:59.173Z,13.87
2019-03-23T04:54:03.399Z,15.20
2019-03-23T04:59:07.668Z,13.77
2019-03-23T05:04:11.964Z,15.40
2019-03-23T05:09:16.327Z,14.20
2019-03-23T05:14:20.585Z,14.23
2019-03-23T05:19:24.920Z,13.00
2019-03-23T05:24:29.393Z,14.07
2019-03-23T05:29:33.709Z,14.97
2019-03-23T05:34:37.944Z,12.70
2019-03-23T05:39:42.200Z,13.03
2019-03-23T05:44:46.473Z,13.57
2019-03-23T05:49:50.807Z,13.90
2019-03-23T05:54:55.478Z,15.80
2019-03-23T05:59:59.833Z,16.40
2019-03-23T06:05:04.517Z,17.77
2019-03-23T06:10:08.777Z,15.67
2019-03-23T06:15:13.143Z,18.73
2019-03-23T06:20:36.475Z,18.03
2019-03-23T06:25:40.705Z,17.80
2019-03-23T06:30:45.077Z,18.47
2019-03-23T06:35:49.375Z,15.73
2019-03-23T06:40:53.667Z,16.33
2019-03-23T06:45:58.173Z,18.83
2019-03-23T06:51:03.414Z,16.40
2019-03-23T06:56:07.726Z,16.03
2019-03-23T07:01:21.145Z,16.00
2019-03-23T07:06:25.368Z,14.30
2019-03-23T07:11:29.601Z,16.70
2019-03-23T07:16:33.852Z,15.53
2019-03-23T07:21:38.278Z,15.00
2019-03-23T07:26:42.504Z,18.77
2019-03-23T07:31:46.804Z,17.00
2019-03-23T07:36:51.173Z,19.07
2019-03-23T07:41:55.468Z,17.40
2019-03-23T07:46:59.744Z,22.20
2019-03-23T07:52:05.353Z,21.70
2019-03-23T07:57:09.597Z,26.07
2019-03-23T08:02:14.168Z,29.43
2019-03-23T08:07:18.505Z,24.10
2019-03-23T08:12:23.008Z,25.80
2019-03-23T08:17:27.491Z,25.10
2019-03-23T08:22:31.836Z,25.07
2019-03-23T08:27:36.278Z,25.30
2019-03-23T08:32:40.540Z,28.23
2019-03-23T08:37:44.969Z,25.20
2019-03-23T08:42:49.264Z,28.10
2019-03-23T08:47:53.823Z,25.00
2019-03-23T08:52:58.172Z,27.63
2019-03-23T08:58:02.548Z,25.63
2019-03-23T09:03:07.154Z,25.80
2019-03-23T09:08:11.586Z,30.03
2019-03-23T09:13:16.024Z,29.13
2019-03-23T09:18:20.298Z,27.70
2019-03-23T09:23:24.524Z,25.90
2019-03-23T09:28:28.742Z,24.53
2019-03-23T09:33:33.077Z,20.03
2019-03-23T09:38:37.717Z,26.47
2019-03-23T09:43:41.970Z,20.97
2019-03-23T09:48:46.391Z,20.03
2019-03-23T09:53:50.748Z,23.93
2019-03-23T09:58:55.017Z,20.67
2019-03-23T10:03:59.212Z,29.43
2019-03-23T10:09:07.034Z,18.77
2019-03-23T10:14:11.760Z,20.27
2019-03-23T10:19:16.062Z,22.97
2019-03-23T10:24:20.570Z,19.93
2019-03-23T10:29:25.082Z,21.07
2019-03-23T10:34:29.412Z,27.10
2019-03-23T10:39:33.834Z,21.43
2019-03-23T10:44:40.730Z,21.20
2019-03-23T10:49:55.026Z,24.27
2019-03-23T10:55:00.893Z,21.73
2019-03-23T11:00:06.291Z,25.83
2019-03-23T11:05:11.160Z,21.23
2019-03-23T11:10:15.793Z,25.10
2019-03-23T11:15:20.490Z,18.83
2019-03-23T11:20:25.039Z,20.37
2019-03-23T11:25:29.383Z,15.13
2019-03-23T11:30:33.831Z,17.63
2019-03-23T11:35:39.217Z,21.23
2019-03-23T11:40:52.161Z,17.43
2019-03-23T11:45:50.013Z,20.47
2019-03-23T11:50:54.652Z,20.27
2019-03-23T11:55:59.149Z,28.53
2019-03-23T12:01:03.687Z,18.77
2019-03-23T12:06:08.054Z,18.10
2019-03-23T12:11:13.797Z,23.83
2019-03-23T12:16:25.040Z,16.27
2019-03-23T12:21:31.044Z,22.40
2019-03-23T12:26:37.193Z,25.63
2019-03-23T12:31:44.936Z,18.87
2019-03-23T12:36:49.549Z,24.00
2019-03-23T12:41:53.829Z,17.83
2019-03-23T12:46:58.267Z,15.47
2019-03-23T12:52:02.597Z,20.20
2019-03-23T12:57:06.920Z,12.53
2019-03-23T13:02:11.301Z,14.03
2019-03-23T13:07:15.621Z,14.07
2019-03-23T13:12:20.028Z,13.83
2019-03-23T13:17:24.433Z,12.27
2019-03-23T13:22:30.807Z,13.97
2019-03-23T13:27:35.223Z,11.00
2019-03-23T13:32:39.608Z,17.03
2019-03-23T13:37:44.192Z,10.10
2019-03-23T13:42:48.509Z,12.20
2019-03-23T13:47:54.860Z,13.90
2019-03-23T13:52:59.058Z,9.00
2019-03-23T13:58:10.771Z,9.60
2019-03-23T14:03:15.144Z,10.87
2019-03-23T14:08:19.455Z,8.63
2019-03-23T14:13:23.680Z,7.13
2019-03-23T14:18:28.114Z,23.70
2019-03-23T14:23:32.438Z,15.90
2019-03-23T14:28:36.902Z,15.20
2019-03-23T14:33:42.891Z,11.70
2019-03-23T14:38:47.254Z,11.70
2019-03-23T14:43:51.619Z,8.70
2019-03-23T14:48:56.069Z,8.67
2019-03-23T14:54:00.569Z,7.67
2019-03-23T14:59:05.068Z,9.70
2019-03-23T15:04:09.344Z,9.23
2019-03-23T15:09:14.971Z,6.07
2019-03-23T15:14:19.575Z,6.70
2019-03-23T15:19:23.851Z,5.60
2019-03-23T15:24:28.253Z,6.97
2019-03-23T15:29:32.579Z,9.80
2019-03-23T15:34:36.836Z,7.30
2019-03-23T15:39:43.837Z,6.60
2019-03-23T15:44:48.300Z,8.10
2019-03-23T15:49:52.751Z,5.43
2019-03-23T15:54:57.132Z,10.00
2019-03-23T16:00:01.356Z,6.17
2019-03-23T16:05:06.240Z,5.27
2019-03-23T16:10:10.556Z,7.57
2019-03-23T16:15:15.083Z,10.80
2019-03-23T16:20:19.438Z,5.97
2019-03-23T16:25:23.824Z,9.40
2019-03-23T16:30:32.812Z,7.03
2019-03-23T16:35:37.331Z,7.63
2019-03-23T16:40:41.678Z,8.07
2019-03-23T16:45:46.083Z,8.57
2019-03-23T16:51:11.051Z,7.90
2019-03-23T16:56:15.294Z,13.10
2019-03-23T17:01:19.576Z,7.43
2019-03-23T17:06:25.544Z,7.37
2019-03-23T17:11:31.125Z,6.87
2019-03-23T17:16:42.851Z,7.63
2019-03-23T17:22:08.178Z,6.87
2019-03-23T17:27:12.553Z,5.60
2019-03-23T17:32:16.863Z,8.20
2019-03-23T17:37:21.465Z,5.93
2019-03-23T17:42:25.865Z,9.50
2019-03-23T17:47:30.372Z,9.27
2019-03-23T17:52:35.943Z,13.87
2019-03-23T17:57:40.418Z,17.13
2019-03-23T18:02:44.810Z,8.97
2019-03-23T18:07:50.384Z,10.53
2019-03-23T18:12:54.712Z,8.77
2019-03-23T18:17:58.954Z,6.53
2019-03-23T18:23:03.283Z,10.57
2019-03-23T18:28:08.953Z,8.80
2019-03-23T18:33:13.600Z,12.40
2019-03-23T18:38:18.064Z,15.20
2019-03-23T18:43:27.376Z,16.53
2019-03-23T18:48:28.397Z,13.80
2019-03-23T18:53:32.591Z,21.30
2019-03-23T18:58:36.917Z,18.50
2019-03-23T19:03:41.227Z,13.50
2019-03-23T19:08:45.805Z,11.73
2019-03-23T19:13:50.101Z,10.13
2019-03-23T19:18:54.333Z,9.43
2019-03-23T19:23:58.683Z,11.93
2019-03-23T19:29:03.128Z,12.80
2019-03-23T19:34:07.638Z,11.50
2019-03-23T19:39:11.923Z,10.67
2019-03-23T19:44:17.189Z,12.20
2019-03-23T19:49:22.059Z,12.00
2019-03-23T19:54:26.373Z,10.00
2019-03-23T19:59:30.789Z,10.90
2019-03-23T20:04:35.085Z,7.63
2019-03-23T20:09:58.466Z,11.57
2019-03-23T20:15:02.943Z,12.17
2019-03-23T20:20:08.873Z,11.03
2019-03-23T20:25:13.380Z,14.40
2019-03-23T20:30:17.796Z,11.63
2019-03-23T20:35:22.313Z,18.70
2019-03-23T20:40:26.971Z,13.60
2019-03-23T20:45:31.828Z,11.83
2019-03-23T20:50:36.294Z,12.27
2019-03-23T20:55:40.743Z,14.30
2019-03-23T21:00:45.077Z,10.37
2019-03-23T21:05:50.357Z,10.77
2019-03-23T21:10:55.572Z,10.73
2019-03-23T21:15:59.979Z,8.70
2019-03-23T21:21:04.225Z,15.50
2019-03-23T21:26:08.595Z,10.93
2019-03-23T21:31:12.822Z,8.90
2019-03-23T21:36:17.161Z,10.10
2019-03-23T21:41:21.481Z,7.60
2019-03-23T21:46:25.891Z,13.30
2019-03-23T21:51:30.292Z,11.73
2019-03-23T21:56:34.709Z,9.50
2019-03-23T22:01:39.002Z,10.30
2019-03-23T22:06:43.339Z,8.93
2019-03-23T22:11:47.798Z,9.47
2019-03-23T22:16:52.237Z,8.07
2019-03-23T22:21:56.546Z,10.97
2019-03-23T22:27:00.825Z,11.70
2019-03-23T22:32:05.244Z,9.73
2019-03-23T22:37:09.560Z,9.00
2019-03-23T22:42:14.266Z,9.43
2019-03-23T22:47:18.638Z,12.47
2019-03-23T22:52:26.104Z,12.17
2019-03-23T22:57:30.551Z,14.13
2019-03-23T23:02:34.992Z,14.23
2019-03-23T23:07:39.327Z,14.03
2019-03-23T23:12:43.923Z,13.83
2019-03-23T23:17:48.215Z,11.80
2019-03-23T23:22:52.633Z,11.13
2019-03-23T23:27:56.859Z,13.97
2019-03-23T23:33:02.693Z,12.40
2019-03-23T23:38:06.951Z,15.70
2019-03-23T23:43:11.483Z,14.03
2019-03-23T23:48:15.937Z,13.10
2019-03-23T23:53:21.099Z,14.70
2019-03-23T23:58:25.346Z,18.23
